createdAt,value
2023-05-21T00:00:12.255Z,10.77
2023-05-21T00:02:43.137Z,9.37
2023-05-21T00:05:14.753Z,11.77
2023-05-21T00:07:43.524Z,10.17
2023-05-21T00:10:12.283Z,13.83
2023-05-21T00:12:42.014Z,12.93
2023-05-21T00:15:11.584Z,12.80
2023-05-21T00:17:40.197Z,16.17
2023-05-21T00:20:10.863Z,14.40
2023-05-21T00:22:40.452Z,14.50
2023-05-21T00:25:09.431Z,18.13
2023-05-21T00:27:37.916Z,17.17
2023-05-21T00:30:07.683Z,13.90
2023-05-21T00:32:36.927Z,13.80
2023-05-21T00:35:06.393Z,15.27
2023-05-21T00:37:36.492Z,13.83
2023-05-21T00:40:07.827Z,10.20
2023-05-21T00:42:39.733Z,12.93
2023-05-21T00:45:09.268Z,13.17
2023-05-21T00:47:39.510Z,13.27
2023-05-21T00:50:09.440Z,15.90
2023-05-21T00:52:42.185Z,17.13
2023-05-21T00:55:11.786Z,16.67
2023-05-21T00:57:41.544Z,19.10
2023-05-21T01:00:10.982Z,17.80
2023-05-21T01:02:40.003Z,18.73
2023-05-21T01:05:09.090Z,18.07
2023-05-21T01:07:42.735Z,17.47
2023-05-21T01:10:12.693Z,17.20
2023-05-21T01:12:44.049Z,22.77
2023-05-21T01:15:13.246Z,15.47
2023-05-21T01:17:42.776Z,18.13
2023-05-21T01:20:12.219Z,21.73
2023-05-21T01:22:49.157Z,16.47
2023-05-21T01:25:19.409Z,20.07
2023-05-21T01:27:47.919Z,18.60
2023-05-21T01:30:18.578Z,17.63
2023-05-21T01:32:57.011Z,14.17
2023-05-21T01:35:29.435Z,12.07
2023-05-21T01:38:06.323Z,12.17
2023-05-21T01:40:41.818Z,15.00
2023-05-21T01:43:11.279Z,17.27
2023-05-21T01:45:42.116Z,16.53
2023-05-21T01:48:11.840Z,15.97
2023-05-21T01:50:42.930Z,16.10
2023-05-21T01:53:11.491Z,16.30
2023-05-21T01:55:42.043Z,18.37
2023-05-21T01:58:11.125Z,14.87
2023-05-21T02:00:40.393Z,14.20
2023-05-21T02:03:09.291Z,20.87
2023-05-21T02:05:38.320Z,15.17
2023-05-21T02:08:08.472Z,19.37
2023-05-21T02:10:36.990Z,19.70
2023-05-21T02:13:07.038Z,18.80
2023-05-21T02:15:36.009Z,17.77
2023-05-21T02:18:04.879Z,19.30
2023-05-21T02:20:34.317Z,18.27
2023-05-21T02:23:03.077Z,18.27
2023-05-21T02:25:31.632Z,15.37
2023-05-21T02:28:01.081Z,19.00
2023-05-21T02:30:30.929Z,13.63
2023-05-21T02:33:01.232Z,13.03
2023-05-21T02:35:29.761Z,13.97
2023-05-21T02:37:59.435Z,25.17
2023-05-21T02:40:28.309Z,15.77
2023-05-21T02:42:56.914Z,15.93
2023-05-21T02:45:26.005Z,14.83
2023-05-21T02:47:56.249Z,18.10
2023-05-21T02:50:25.083Z,18.37
2023-05-21T02:52:59.837Z,18.83
2023-05-21T02:55:28.867Z,19.73
2023-05-21T02:57:57.468Z,16.40
2023-05-21T03:00:25.941Z,17.97
2023-05-21T03:02:56.094Z,21.53
2023-05-21T03:05:24.768Z,19.40
2023-05-21T03:07:53.484Z,17.20
2023-05-21T03:10:22.930Z,18.20
2023-05-21T03:12:52.673Z,22.73
2023-05-21T03:15:24.296Z,17.63
2023-05-21T03:17:54.333Z,17.67
2023-05-21T03:20:28.981Z,16.23
2023-05-21T03:22:57.505Z,19.30
2023-05-21T03:25:26.098Z,15.43
2023-05-21T03:27:56.999Z,18.10
2023-05-21T03:31:03.823Z,14.70
2023-05-21T03:33:44.607Z,18.23
2023-05-21T03:36:23.458Z,15.93
2023-05-21T03:38:51.969Z,19.33
2023-05-21T03:41:21.318Z,13.57
2023-05-21T03:43:54.269Z,16.00
2023-05-21T03:46:26.407Z,14.93
2023-05-21T03:49:22.226Z,14.37
2023-05-21T03:51:54.624Z,16.07
2023-05-21T03:54:23.530Z,14.17
2023-05-21T03:56:55.592Z,14.70
2023-05-21T03:59:26.412Z,13.83
2023-05-21T04:01:54.941Z,14.13
2023-05-21T04:04:23.499Z,13.10
2023-05-21T04:06:55.457Z,14.73
2023-05-21T04:09:24.813Z,14.47
2023-05-21T04:11:53.990Z,14.53
2023-05-21T04:14:22.692Z,13.93
2023-05-21T04:16:53.114Z,16.70
2023-05-21T04:19:23.143Z,14.33
2023-05-21T04:21:52.033Z,13.63
2023-05-21T04:24:22.652Z,12.07
2023-05-21T04:27:14.201Z,12.13
2023-05-21T04:29:43.673Z,11.03
2023-05-21T04:32:15.376Z,16.53
2023-05-21T04:34:43.860Z,11.37
2023-05-21T04:37:12.384Z,12.70
2023-05-21T04:39:42.563Z,11.13
2023-05-21T04:42:12.031Z,12.23
2023-05-21T04:44:41.531Z,11.67
2023-05-21T04:47:12.434Z,11.73
2023-05-21T04:49:41.330Z,14.13
2023-05-21T04:52:10.011Z,13.03
2023-05-21T04:54:39.195Z,13.40
2023-05-21T04:57:09.783Z,16.63
2023-05-21T04:59:39.623Z,12.23
2023-05-21T05:02:08.303Z,13.23
2023-05-21T05:04:36.744Z,15.40
2023-05-21T05:07:05.625Z,13.63
2023-05-21T05:09:34.403Z,11.30
2023-05-21T05:12:02.941Z,11.00
2023-05-21T05:14:32.875Z,10.60
2023-05-21T05:17:02.018Z,11.70
2023-05-21T05:19:32.068Z,11.57
2023-05-21T05:22:00.696Z,10.70
2023-05-21T05:24:29.338Z,12.40
2023-05-21T05:26:58.339Z,14.10
2023-05-21T05:29:27.122Z,9.63
2023-05-21T05:31:57.001Z,17.73
2023-05-21T05:34:25.491Z,12.50
2023-05-21T05:36:54.066Z,11.47
2023-05-21T05:39:22.489Z,10.43
2023-05-21T05:41:52.007Z,10.53
2023-05-21T05:44:20.714Z,12.20
2023-05-21T05:46:49.887Z,10.20
2023-05-21T05:49:22.589Z,12.90
2023-05-21T05:51:51.459Z,8.90
2023-05-21T05:54:20.652Z,11.47
2023-05-21T05:56:49.146Z,10.60
2023-05-21T05:59:17.651Z,14.17
2023-05-21T06:01:49.632Z,11.13
2023-05-21T06:04:18.369Z,10.13
2023-05-21T06:06:48.645Z,11.93
2023-05-21T06:09:17.237Z,9.73
2023-05-21T06:11:48.270Z,15.20
2023-05-21T06:14:16.980Z,9.50
2023-05-21T06:16:45.545Z,10.60
2023-05-21T06:19:14.297Z,9.87
2023-05-21T06:21:42.847Z,12.07
2023-05-21T06:24:12.818Z,9.73
2023-05-21T06:26:42.168Z,12.67
2023-05-21T06:29:11.194Z,10.03
2023-05-21T06:31:40.254Z,9.20
2023-05-21T06:34:09.014Z,9.77
2023-05-21T06:36:37.563Z,12.30
2023-05-21T06:39:06.344Z,9.90
2023-05-21T06:41:37.672Z,9.07
2023-05-21T06:44:24.373Z,12.70
2023-05-21T06:47:16.821Z,11.67
2023-05-21T06:49:45.968Z,12.30
2023-05-21T06:52:15.349Z,9.23
2023-05-21T06:54:44.072Z,9.93
2023-05-21T06:57:15.407Z,10.27
2023-05-21T06:59:44.841Z,12.80
2023-05-21T07:02:13.510Z,12.20
2023-05-21T07:04:42.502Z,12.30
2023-05-21T07:07:11.062Z,11.33
2023-05-21T07:09:39.833Z,14.13
2023-05-21T07:12:09.622Z,9.87
2023-05-21T07:14:40.756Z,11.63
2023-05-21T07:17:09.387Z,11.37
2023-05-21T07:19:38.326Z,11.50
2023-05-21T07:22:07.363Z,13.97
2023-05-21T07:24:36.127Z,12.60
2023-05-21T07:27:14.338Z,11.17
2023-05-21T07:29:44.555Z,11.57
2023-05-21T07:32:13.267Z,13.53
2023-05-21T07:34:41.901Z,12.77
2023-05-21T07:37:10.466Z,12.07
2023-05-21T07:39:39.610Z,14.10
2023-05-21T07:42:08.535Z,11.20
2023-05-21T07:44:37.429Z,12.30
2023-05-21T07:47:07.582Z,12.73
2023-05-21T07:49:36.557Z,12.80
2023-05-21T07:52:05.695Z,14.23
2023-05-21T07:54:34.800Z,11.63
2023-05-21T07:57:03.559Z,12.70
2023-05-21T08:00:01.613Z,12.13
2023-05-21T08:02:37.917Z,13.13
2023-05-21T08:05:07.383Z,13.10
2023-05-21T08:07:36.564Z,11.80
2023-05-21T08:10:06.312Z,12.43
2023-05-21T08:12:35.030Z,16.80
2023-05-21T08:15:03.782Z,12.33
2023-05-21T08:17:33.397Z,12.10
2023-05-21T08:20:03.812Z,15.30
2023-05-21T08:22:33.666Z,14.63
2023-05-21T08:25:02.220Z,12.47
2023-05-21T08:27:31.113Z,11.43
2023-05-21T08:30:00.254Z,13.67
2023-05-21T08:32:29.040Z,13.13
2023-05-21T08:34:57.767Z,15.13
2023-05-21T08:37:54.974Z,13.73
2023-05-21T08:40:54.576Z,12.90
2023-05-21T08:43:23.325Z,13.30
2023-05-21T08:45:56.344Z,14.07
2023-05-21T08:48:28.452Z,13.53
2023-05-21T08:50:57.209Z,12.73
2023-05-21T08:53:35.645Z,14.57
2023-05-21T08:56:08.189Z,14.10
2023-05-21T08:58:57.661Z,14.87
2023-05-21T09:01:29.618Z,14.77
2023-05-21T09:04:19.633Z,13.70
2023-05-21T09:06:52.974Z,13.47
2023-05-21T09:09:45.484Z,17.53
2023-05-21T09:12:14.041Z,13.07
2023-05-21T09:14:44.476Z,14.23
2023-05-21T09:17:20.351Z,17.30
2023-05-21T09:20:11.184Z,13.90
2023-05-21T09:22:43.844Z,13.20
2023-05-21T09:25:16.381Z,13.43
2023-05-21T09:27:45.469Z,14.03
2023-05-21T09:30:16.145Z,16.40
2023-05-21T09:32:46.341Z,14.17
2023-05-21T09:35:16.601Z,13.20
2023-05-21T09:37:50.066Z,19.07
2023-05-21T09:40:22.148Z,14.07
2023-05-21T09:42:52.777Z,17.33
2023-05-21T09:45:22.474Z,14.73
2023-05-21T09:47:54.023Z,14.70
2023-05-21T09:50:23.949Z,15.50
2023-05-21T09:52:53.389Z,15.50
2023-05-21T09:55:25.979Z,15.43
2023-05-21T09:57:55.180Z,14.57
2023-05-21T10:00:25.232Z,15.17
2023-05-21T10:02:56.329Z,17.53
2023-05-21T10:05:28.728Z,16.20
2023-05-21T10:08:02.278Z,14.60
2023-05-21T10:10:33.270Z,13.17
2023-05-21T10:13:07.024Z,18.07
2023-05-21T10:15:39.822Z,14.40
2023-05-21T10:18:09.973Z,15.13
2023-05-21T10:20:41.781Z,26.97
2023-05-21T10:23:13.062Z,15.20
2023-05-21T10:25:43.872Z,14.30
2023-05-21T10:28:17.656Z,17.20
2023-05-21T10:30:47.503Z,18.90
2023-05-21T10:33:17.736Z,16.83
2023-05-21T10:35:48.596Z,14.77
2023-05-21T10:38:20.725Z,16.27
2023-05-21T10:40:51.255Z,15.60
2023-05-21T10:43:41.969Z,17.37
2023-05-21T10:46:44.707Z,18.37
2023-05-21T10:49:31.904Z,15.60
2023-05-21T10:52:10.362Z,17.33
2023-05-21T10:55:00.932Z,18.40
2023-05-21T10:57:48.137Z,19.40
2023-05-21T11:00:20.594Z,17.93
2023-05-21T11:02:52.072Z,16.43
2023-05-21T11:05:42.653Z,17.93
2023-05-21T11:08:22.887Z,17.23
2023-05-21T11:10:55.872Z,16.57
2023-05-21T11:13:26.592Z,17.40
2023-05-21T11:16:09.508Z,17.47
2023-05-21T11:19:03.718Z,17.70
2023-05-21T11:21:35.534Z,16.03
2023-05-21T11:24:08.450Z,18.50
2023-05-21T11:27:05.813Z,19.03
2023-05-21T11:29:47.332Z,17.03
2023-05-21T11:32:20.775Z,16.73
2023-05-21T11:34:49.726Z,19.63
2023-05-21T11:37:34.836Z,18.20
2023-05-21T11:40:27.414Z,20.40
2023-05-21T11:42:57.303Z,16.80
2023-05-21T11:45:32.564Z,16.73
2023-05-21T11:48:01.778Z,16.53
2023-05-21T11:50:33.922Z,17.73
2023-05-21T11:53:02.694Z,19.50
2023-05-21T11:55:32.086Z,16.63
2023-05-21T11:58:00.982Z,17.42
2023-05-21T12:00:32.065Z,19.23
2023-05-21T12:03:00.707Z,16.02
2023-05-21T12:05:29.373Z,16.67
2023-05-21T12:07:58.489Z,16.80
2023-05-21T12:10:27.005Z,17.10
2023-05-21T12:12:57.308Z,19.08
2023-05-21T12:15:28.083Z,23.45
2023-05-21T12:17:58.721Z,17.35
2023-05-21T12:20:29.180Z,16.13
2023-05-21T12:23:00.041Z,15.60
2023-05-21T12:25:30.075Z,15.63
2023-05-21T12:28:00.673Z,15.00
2023-05-21T12:30:30.067Z,15.98
2023-05-21T12:33:02.326Z,16.27
2023-05-21T12:35:32.317Z,15.55
2023-05-21T12:38:02.685Z,17.75
2023-05-21T12:40:39.724Z,19.73
2023-05-21T12:43:08.904Z,16.48
2023-05-21T12:45:39.589Z,17.67
2023-05-21T12:48:09.928Z,16.52
2023-05-21T12:50:41.024Z,16.23
2023-05-21T12:53:11.290Z,15.02
2023-05-21T12:55:40.619Z,16.63
2023-05-21T12:58:09.562Z,16.55
2023-05-21T13:00:38.764Z,16.00
2023-05-21T13:03:07.712Z,15.30
2023-05-21T13:05:41.796Z,15.18
2023-05-21T13:08:10.836Z,14.60
2023-05-21T13:10:39.770Z,13.98
2023-05-21T13:13:08.613Z,14.35
2023-05-21T13:15:37.177Z,15.75
2023-05-21T13:18:05.889Z,14.43
2023-05-21T13:20:34.597Z,15.63
2023-05-21T13:23:06.226Z,13.90
2023-05-21T13:25:35.632Z,17.42
2023-05-21T13:28:06.200Z,13.18
2023-05-21T13:30:34.928Z,14.85
2023-05-21T13:33:04.354Z,15.88
2023-05-21T13:35:33.081Z,17.77
2023-05-21T13:38:01.696Z,15.35
2023-05-21T13:40:31.655Z,21.95
2023-05-21T13:43:00.240Z,15.00
2023-05-21T13:45:30.292Z,16.23
2023-05-21T13:47:59.552Z,16.88
2023-05-21T13:50:28.481Z,15.23
2023-05-21T13:52:57.115Z,15.35
2023-05-21T13:55:25.659Z,17.38
2023-05-21T13:57:55.596Z,19.30
2023-05-21T14:00:24.215Z,16.67
2023-05-21T14:02:53.146Z,18.55
2023-05-21T14:05:21.796Z,17.92
2023-05-21T14:07:51.549Z,15.43
2023-05-21T14:10:20.490Z,17.83
2023-05-21T14:12:49.099Z,16.33
2023-05-21T14:15:19.377Z,15.10
2023-05-21T14:17:48.510Z,16.75
2023-05-21T14:20:17.010Z,20.67
2023-05-21T14:22:45.765Z,15.70
2023-05-21T14:25:14.336Z,15.23
2023-05-21T14:27:42.941Z,16.85
2023-05-21T14:30:12.372Z,14.80
2023-05-21T14:32:42.460Z,15.05
2023-05-21T14:35:11.303Z,17.42
2023-05-21T14:37:40.062Z,14.27
2023-05-21T14:40:09.955Z,17.83
2023-05-21T14:42:38.406Z,15.13
2023-05-21T14:45:18.807Z,15.95
2023-05-21T14:47:49.654Z,19.95
2023-05-21T14:50:19.361Z,19.25
2023-05-21T14:52:48.049Z,15.00
2023-05-21T14:55:18.511Z,15.57
2023-05-21T14:57:47.316Z,15.40
2023-05-21T15:00:16.464Z,14.55
2023-05-21T15:02:45.359Z,15.05
2023-05-21T15:05:15.455Z,15.38
2023-05-21T15:07:44.200Z,19.55
2023-05-21T15:10:12.977Z,21.13
2023-05-21T15:12:42.109Z,18.05
2023-05-21T15:15:12.450Z,18.07
2023-05-21T15:17:41.774Z,14.68
2023-05-21T15:20:11.053Z,18.30
2023-05-21T15:22:41.291Z,14.45
2023-05-21T15:25:10.786Z,14.27
2023-05-21T15:27:39.529Z,14.70
2023-05-21T15:30:09.036Z,12.43
2023-05-21T15:32:37.763Z,13.77
2023-05-21T15:35:07.093Z,12.95
2023-05-21T15:37:35.694Z,20.90
2023-05-21T15:40:08.812Z,15.13
2023-05-21T15:42:37.309Z,14.18
2023-05-21T15:45:06.654Z,13.95
2023-05-21T15:47:35.172Z,12.82
2023-05-21T15:50:03.741Z,12.88
2023-05-21T15:52:32.496Z,17.40
2023-05-21T15:55:01.032Z,15.48
2023-05-21T15:57:31.531Z,15.45
2023-05-21T16:00:00.187Z,16.38
2023-05-21T16:02:29.036Z,15.32
2023-05-21T16:04:57.715Z,13.10
2023-05-21T16:07:26.163Z,13.13
2023-05-21T16:09:54.730Z,13.05
2023-05-21T16:12:23.285Z,14.57
2023-05-21T16:14:53.200Z,15.10
2023-05-21T16:17:21.761Z,16.00
2023-05-21T16:19:50.289Z,13.95
2023-05-21T16:22:20.466Z,12.27
2023-05-21T16:24:48.943Z,13.70
2023-05-21T16:27:17.833Z,13.38
2023-05-21T16:29:46.448Z,13.25
2023-05-21T16:32:16.640Z,13.48
2023-05-21T16:34:45.200Z,14.00
2023-05-21T16:37:13.790Z,15.23
2023-05-21T16:39:42.382Z,14.23
2023-05-21T16:42:12.140Z,15.43
2023-05-21T16:44:41.025Z,13.30
2023-05-21T16:47:09.437Z,18.20
2023-05-21T16:49:39.334Z,15.48
2023-05-21T16:52:07.877Z,13.15
2023-05-21T16:54:36.436Z,15.35
2023-05-21T16:57:05.136Z,14.18
2023-05-21T16:59:33.502Z,19.88
2023-05-21T17:02:02.110Z,16.15
2023-05-21T17:04:30.777Z,16.67
2023-05-21T17:07:01.570Z,26.00
2023-05-21T17:09:30.084Z,16.90
2023-05-21T17:11:58.658Z,15.38
2023-05-21T17:14:34.412Z,13.50
2023-05-21T17:17:03.761Z,15.90
2023-05-21T17:19:32.424Z,19.02
2023-05-21T17:22:02.366Z,13.70
2023-05-21T17:24:31.055Z,13.48
2023-05-21T17:26:59.793Z,16.17
2023-05-21T17:29:28.362Z,14.40
2023-05-21T17:31:57.243Z,15.10
2023-05-21T17:34:29.683Z,14.17
2023-05-21T17:36:59.651Z,16.03
2023-05-21T17:39:29.542Z,16.92
2023-05-21T17:41:58.582Z,14.90
2023-05-21T17:44:30.066Z,13.63
2023-05-21T17:47:01.596Z,16.23
2023-05-21T17:49:30.236Z,14.40
2023-05-21T17:52:00.272Z,14.30
2023-05-21T17:54:30.467Z,14.63
2023-05-21T17:56:59.094Z,14.40
2023-05-21T17:59:27.606Z,14.50
2023-05-21T18:01:56.323Z,16.70
2023-05-21T18:04:24.982Z,13.93
2023-05-21T18:06:53.463Z,13.77
2023-05-21T18:09:22.132Z,13.70
2023-05-21T18:11:52.530Z,17.70
2023-05-21T18:14:21.098Z,15.23
2023-05-21T18:16:49.828Z,13.87
2023-05-21T18:19:18.758Z,14.43
2023-05-21T18:21:49.507Z,15.30
2023-05-21T18:24:18.044Z,15.53
2023-05-21T18:26:46.904Z,15.03
2023-05-21T18:29:18.013Z,18.20
2023-05-21T18:31:46.690Z,17.70
2023-05-21T18:34:17.007Z,16.40
2023-05-21T18:36:45.977Z,15.37
2023-05-21T18:39:14.551Z,14.43
2023-05-21T18:41:43.222Z,14.03
2023-05-21T18:44:11.690Z,17.47
2023-05-21T18:46:42.464Z,19.57
2023-05-21T18:49:11.299Z,19.13
2023-05-21T18:51:40.071Z,20.63
2023-05-21T18:54:09.369Z,14.10
2023-05-21T18:56:37.806Z,15.63
2023-05-21T18:59:06.551Z,14.90
2023-05-21T19:01:35.350Z,16.33
2023-05-21T19:04:05.371Z,15.87
2023-05-21T19:06:33.861Z,16.77
2023-05-21T19:09:02.735Z,22.93
2023-05-21T19:11:34.482Z,21.77
2023-05-21T19:14:02.958Z,13.80
2023-05-21T19:16:31.732Z,14.53
2023-05-21T19:19:00.323Z,19.20
2023-05-21T19:21:30.287Z,18.77
2023-05-21T19:23:58.814Z,16.80
2023-05-21T19:26:29.698Z,15.97
2023-05-21T19:28:58.249Z,17.37
2023-05-21T19:31:26.987Z,16.63
2023-05-21T19:33:55.725Z,19.97
2023-05-21T19:36:24.415Z,15.30
2023-05-21T19:38:54.553Z,15.90
2023-05-21T19:41:23.752Z,14.93
2023-05-21T19:43:52.260Z,15.90
2023-05-21T19:46:21.078Z,15.53
2023-05-21T19:48:50.229Z,15.00
2023-05-21T19:51:18.881Z,16.67
2023-05-21T19:53:47.671Z,16.60
2023-05-21T19:56:17.631Z,18.73
2023-05-21T19:58:48.113Z,16.10
2023-05-21T20:01:17.972Z,15.40
2023-05-21T20:03:46.896Z,16.50
2023-05-21T20:06:19.177Z,17.87
2023-05-21T20:08:51.857Z,16.90
2023-05-21T20:11:22.115Z,15.27
2023-05-21T20:13:50.952Z,14.03
2023-05-21T20:16:20.056Z,18.10
2023-05-21T20:18:49.088Z,17.13
2023-05-21T20:21:18.892Z,18.57
2023-05-21T20:23:48.659Z,18.13
2023-05-21T20:26:19.085Z,16.77
2023-05-21T20:28:49.151Z,20.47
2023-05-21T20:31:17.740Z,22.53
2023-05-21T20:33:46.462Z,18.87
2023-05-21T20:36:15.661Z,24.83
2023-05-21T20:38:45.814Z,22.27
2023-05-21T20:41:14.970Z,24.23
2023-05-21T20:43:46.123Z,23.37
2023-05-21T20:46:17.422Z,20.97
2023-05-21T20:48:47.468Z,23.53
2023-05-21T20:51:16.298Z,21.27
2023-05-21T20:53:45.364Z,23.13
2023-05-21T20:56:17.022Z,22.87
2023-05-21T20:58:48.673Z,21.60
2023-05-21T21:01:19.016Z,20.20
2023-05-21T21:03:48.301Z,22.37
2023-05-21T21:06:18.886Z,20.67
2023-05-21T21:08:50.326Z,22.10
2023-05-21T21:11:19.735Z,21.00
2023-05-21T21:13:48.623Z,20.67
2023-05-21T21:16:18.837Z,24.07
2023-05-21T21:18:47.591Z,23.33
2023-05-21T21:21:16.358Z,25.33
2023-05-21T21:23:45.273Z,24.77
2023-05-21T21:26:14.042Z,24.23
2023-05-21T21:28:43.434Z,22.77
2023-05-21T21:31:13.291Z,22.50
2023-05-21T21:33:43.601Z,23.83
2023-05-21T21:36:13.276Z,21.20
2023-05-21T21:38:41.981Z,20.30
2023-05-21T21:41:10.505Z,19.20
2023-05-21T21:43:39.181Z,19.33
2023-05-21T21:46:07.821Z,19.07
2023-05-21T21:48:36.532Z,18.93
2023-05-21T21:51:06.565Z,19.47
2023-05-21T21:53:35.366Z,19.13
2023-05-21T21:56:03.987Z,20.10
2023-05-21T21:58:32.521Z,17.40
2023-05-21T22:01:01.397Z,18.67
2023-05-21T22:03:32.048Z,18.13
2023-05-21T22:06:01.114Z,17.33
2023-05-21T22:08:31.148Z,18.50
2023-05-21T22:11:01.496Z,17.60
2023-05-21T22:13:30.267Z,17.47
2023-05-21T22:15:58.862Z,18.93
2023-05-21T22:18:40.396Z,16.50
2023-05-21T22:21:11.026Z,17.50
2023-05-21T22:23:41.317Z,16.43
2023-05-21T22:26:10.690Z,15.57
2023-05-21T22:28:39.362Z,18.57
2023-05-21T22:31:09.155Z,13.53
2023-05-21T22:33:37.912Z,12.77
2023-05-21T22:36:07.157Z,12.17
2023-05-21T22:38:35.814Z,10.37
2023-05-21T22:41:05.706Z,10.80
2023-05-21T22:43:35.344Z,13.07
2023-05-21T22:46:03.875Z,12.53
2023-05-21T22:48:32.449Z,10.37
2023-05-21T22:51:02.032Z,11.10
2023-05-21T22:53:32.179Z,12.17
2023-05-21T22:56:01.900Z,9.93
2023-05-21T22:58:31.837Z,11.97
2023-05-21T23:01:00.428Z,9.90
2023-05-21T23:03:28.908Z,11.03
2023-05-21T23:05:57.485Z,10.67
2023-05-21T23:08:25.903Z,14.43
2023-05-21T23:10:54.401Z,10.53
2023-05-21T23:13:22.979Z,13.87
2023-05-21T23:15:53.911Z,11.90
2023-05-21T23:18:22.614Z,11.80
2023-05-21T23:20:51.417Z,11.63
2023-05-21T23:23:19.967Z,12.07
2023-05-21T23:25:48.447Z,16.20
2023-05-21T23:28:17.051Z,12.43
2023-05-21T23:30:46.552Z,11.93
2023-05-21T23:33:16.476Z,13.80
2023-05-21T23:35:45.042Z,13.07
2023-05-21T23:38:13.565Z,13.43
2023-05-21T23:40:42.136Z,13.93
2023-05-21T23:43:10.756Z,14.67
2023-05-21T23:45:41.250Z,13.73
2023-05-21T23:48:10.203Z,13.67
2023-05-21T23:50:40.532Z,14.40
2023-05-21T23:53:09.150Z,15.83
2023-05-21T23:55:37.715Z,14.97
2023-05-21T23:58:06.382Z,16.40
